sensor_id;sensor_type;location;lat;lon;timestamp;temperature;humidity
1476;DHT22;730;48.870;12.542;2024-02-26T00:00:41;4.70;1.00
1476;DHT22;730;48.870;12.542;2024-02-26T00:03:07;4.60;1.00
1476;DHT22;730;48.870;12.542;2024-02-26T00:05:33;4.60;1.00
1476;DHT22;730;48.870;12.542;2024-02-26T00:08:00;4.60;1.00
1476;DHT22;730;48.870;12.542;2024-02-26T00:10:26;4.60;1.00
1476;DHT22;730;48.870;12.542;2024-02-26T00:12:52;4.60;1.00
1476;DHT22;730;48.870;12.542;2024-02-26T00:15:18;4.60;1.00
1476;DHT22;730;48.870;12.542;2024-02-26T00:17:44;4.60;1.00
1476;DHT22;730;48.870;12.542;2024-02-26T00:20:10;4.60;1.00
1476;DHT22;730;48.870;12.542;2024-02-26T00:22:37;4.60;1.00
1476;DHT22;730;48.870;12.542;2024-02-26T00:25:04;4.60;1.00
1476;DHT22;730;48.870;12.542;2024-02-26T00:27:30;4.60;1.00
1476;DHT22;730;48.870;12.542;2024-02-26T00:29:56;4.60;1.00
1476;DHT22;730;48.870;12.542;2024-02-26T00:32:22;4.60;1.00
1476;DHT22;730;48.870;12.542;2024-02-26T00:34:57;4.60;1.00
1476;DHT22;730;48.870;12.542;2024-02-26T00:37:23;4.60;1.00
1476;DHT22;730;48.870;12.542;2024-02-26T00:39:49;4.60;1.00
1476;DHT22;730;48.870;12.542;2024-02-26T00:42:15;4.60;1.00
1476;DHT22;730;48.870;12.542;2024-02-26T00:44:41;4.60;1.00
1476;DHT22;730;48.870;12.542;2024-02-26T00:47:07;4.60;1.00
1476;DHT22;730;48.870;12.542;2024-02-26T00:49:33;4.60;1.00
1476;DHT22;730;48.870;12.542;2024-02-26T00:51:59;4.60;1.00
1476;DHT22;730;48.870;12.542;2024-02-26T00:54:25;4.60;1.00
1476;DHT22;730;48.870;12.542;2024-02-26T00:56:51;4.50;1.00
1476;DHT22;730;48.870;12.542;2024-02-26T00:59:17;4.50;1.00
1476;DHT22;730;48.870;12.542;2024-02-26T01:01:46;4.50;1.00
1476;DHT22;730;48.870;12.542;2024-02-26T01:04:12;4.50;1.00
1476;DHT22;730;48.870;12.542;2024-02-26T01:06:38;4.40;1.00
1476;DHT22;730;48.870;12.542;2024-02-26T01:09:05;4.40;1.00
1476;DHT22;730;48.870;12.542;2024-02-26T01:11:31;4.30;1.00
1476;DHT22;730;48.870;12.542;2024-02-26T01:13:57;4.30;1.00
1476;DHT22;730;48.870;12.542;2024-02-26T01:16:24;4.30;1.00
1476;DHT22;730;48.870;12.542;2024-02-26T01:18:50;4.30;1.00
1476;DHT22;730;48.870;12.542;2024-02-26T01:21:16;4.30;1.00
1476;DHT22;730;48.870;12.542;2024-02-26T01:23:42;4.30;1.00
1476;DHT22;730;48.870;12.542;2024-02-26T01:26:08;4.30;1.00
1476;DHT22;730;48.870;12.542;2024-02-26T01:28:34;4.30;1.00
1476;DHT22;730;48.870;12.542;2024-02-26T01:31:00;4.30;1.00
1476;DHT22;730;48.870;12.542;2024-02-26T01:33:27;4.30;1.00
1476;DHT22;730;48.870;12.542;2024-02-26T01:35:53;4.20;1.00
1476;DHT22;730;48.870;12.542;2024-02-26T01:38:19;4.20;1.00
1476;DHT22;730;48.870;12.542;2024-02-26T01:40:45;4.20;1.00
1476;DHT22;730;48.870;12.542;2024-02-26T01:43:11;4.10;1.00
1476;DHT22;730;48.870;12.542;2024-02-26T01:45:37;4.10;1.00
1476;DHT22;730;48.870;12.542;2024-02-26T01:48:03;4.10;1.00
1476;DHT22;730;48.870;12.542;2024-02-26T01:50:34;4.00;1.00
1476;DHT22;730;48.870;12.542;2024-02-26T01:53:00;4.00;1.00
1476;DHT22;730;48.870;12.542;2024-02-26T01:55:26;4.00;1.00
1476;DHT22;730;48.870;12.542;2024-02-26T01:57:53;4.00;1.00
1476;DHT22;730;48.870;12.542;2024-02-26T02:00:20;4.00;1.00
1476;DHT22;730;48.870;12.542;2024-02-26T02:02:47;4.00;1.00
1476;DHT22;730;48.870;12.542;2024-02-26T02:05:15;4.00;1.00
1476;DHT22;730;48.870;12.542;2024-02-26T02:07:43;4.00;1.00
1476;DHT22;730;48.870;12.542;2024-02-26T02:10:09;3.90;1.00
1476;DHT22;730;48.870;12.542;2024-02-26T02:12:35;3.90;1.00
1476;DHT22;730;48.870;12.542;2024-02-26T02:15:04;3.90;1.00
1476;DHT22;730;48.870;12.542;2024-02-26T02:17:31;3.90;1.00
1476;DHT22;730;48.870;12.542;2024-02-26T02:19:57;3.90;1.00
1476;DHT22;730;48.870;12.542;2024-02-26T02:22:23;3.90;1.00
1476;DHT22;730;48.870;12.542;2024-02-26T02:24:52;3.90;1.00
1476;DHT22;730;48.870;12.542;2024-02-26T02:27:19;4.00;1.00
1476;DHT22;730;48.870;12.542;2024-02-26T02:29:46;4.00;1.00
1476;DHT22;730;48.870;12.542;2024-02-26T02:32:12;4.00;1.00
1476;DHT22;730;48.870;12.542;2024-02-26T02:34:39;4.00;1.00
1476;DHT22;730;48.870;12.542;2024-02-26T02:37:05;3.90;1.00
1476;DHT22;730;48.870;12.542;2024-02-26T02:39:31;3.90;1.00
1476;DHT22;730;48.870;12.542;2024-02-26T02:41:57;3.80;1.00
1476;DHT22;730;48.870;12.542;2024-02-26T02:44:23;3.80;1.00
1476;DHT22;730;48.870;12.542;2024-02-26T02:46:49;3.80;1.00
1476;DHT22;730;48.870;12.542;2024-02-26T02:49:16;3.80;1.00
1476;DHT22;730;48.870;12.542;2024-02-26T02:51:42;3.70;1.00
1476;DHT22;730;48.870;12.542;2024-02-26T02:54:08;3.60;1.00
1476;DHT22;730;48.870;12.542;2024-02-26T02:56:34;3.60;1.00
1476;DHT22;730;48.870;12.542;2024-02-26T02:59:02;3.50;1.00
1476;DHT22;730;48.870;12.542;2024-02-26T03:01:28;3.60;1.00
1476;DHT22;730;48.870;12.542;2024-02-26T03:03:54;3.50;1.00
1476;DHT22;730;48.870;12.542;2024-02-26T03:06:20;3.50;1.00
1476;DHT22;730;48.870;12.542;2024-02-26T03:08:47;3.60;1.00
1476;DHT22;730;48.870;12.542;2024-02-26T03:11:14;3.60;1.00
1476;DHT22;730;48.870;12.542;2024-02-26T03:13:41;3.60;1.00
1476;DHT22;730;48.870;12.542;2024-02-26T03:16:08;3.60;1.00
1476;DHT22;730;48.870;12.542;2024-02-26T03:18:34;3.60;1.00
1476;DHT22;730;48.870;12.542;2024-02-26T03:21:00;3.60;1.00
1476;DHT22;730;48.870;12.542;2024-02-26T03:23:26;3.60;1.00
1476;DHT22;730;48.870;12.542;2024-02-26T03:25:52;3.60;1.00
1476;DHT22;730;48.870;12.542;2024-02-26T03:28:18;3.60;1.00
1476;DHT22;730;48.870;12.542;2024-02-26T03:30:45;3.60;1.00
1476;DHT22;730;48.870;12.542;2024-02-26T03:33:11;3.70;1.00
1476;DHT22;730;48.870;12.542;2024-02-26T03:35:37;3.70;1.00
1476;DHT22;730;48.870;12.542;2024-02-26T03:38:03;3.70;1.00
1476;DHT22;730;48.870;12.542;2024-02-26T03:40:29;3.70;1.00
1476;DHT22;730;48.870;12.542;2024-02-26T03:42:55;3.70;1.00
1476;DHT22;730;48.870;12.542;2024-02-26T03:45:23;3.70;1.00
1476;DHT22;730;48.870;12.542;2024-02-26T03:47:49;3.70;1.00
1476;DHT22;730;48.870;12.542;2024-02-26T03:50:15;3.70;1.00
1476;DHT22;730;48.870;12.542;2024-02-26T03:52:42;3.70;1.00
1476;DHT22;730;48.870;12.542;2024-02-26T03:55:08;3.70;1.00
1476;DHT22;730;48.870;12.542;2024-02-26T03:57:36;3.60;1.00
1476;DHT22;730;48.870;12.542;2024-02-26T04:00:02;3.60;1.00
1476;DHT22;730;48.870;12.542;2024-02-26T04:02:28;3.60;1.00
1476;DHT22;730;48.870;12.542;2024-02-26T04:04:54;3.60;1.00
1476;DHT22;730;48.870;12.542;2024-02-26T04:07:20;3.60;1.00
1476;DHT22;730;48.870;12.542;2024-02-26T04:09:47;3.60;1.00
1476;DHT22;730;48.870;12.542;2024-02-26T04:12:13;3.50;1.00
1476;DHT22;730;48.870;12.542;2024-02-26T04:14:39;3.50;1.00
1476;DHT22;730;48.870;12.542;2024-02-26T04:17:05;3.50;1.00
1476;DHT22;730;48.870;12.542;2024-02-26T04:19:31;3.50;1.00
1476;DHT22;730;48.870;12.542;2024-02-26T04:21:57;3.40;1.00
1476;DHT22;730;48.870;12.542;2024-02-26T04:24:24;3.40;1.00
1476;DHT22;730;48.870;12.542;2024-02-26T04:26:50;3.30;1.00
1476;DHT22;730;48.870;12.542;2024-02-26T04:29:16;3.30;1.00
1476;DHT22;730;48.870;12.542;2024-02-26T04:31:42;3.30;1.00
1476;DHT22;730;48.870;12.542;2024-02-26T04:34:08;3.30;1.00
1476;DHT22;730;48.870;12.542;2024-02-26T04:36:34;3.30;1.00
1476;DHT22;730;48.870;12.542;2024-02-26T04:39:00;3.30;1.00
1476;DHT22;730;48.870;12.542;2024-02-26T04:41:27;3.30;1.00
1476;DHT22;730;48.870;12.542;2024-02-26T04:43:53;3.30;1.00
1476;DHT22;730;48.870;12.542;2024-02-26T04:46:19;3.40;1.00
1476;DHT22;730;48.870;12.542;2024-02-26T04:48:47;3.40;1.00
1476;DHT22;730;48.870;12.542;2024-02-26T04:51:13;3.40;1.00
1476;DHT22;730;48.870;12.542;2024-02-26T04:53:39;3.40;1.00
1476;DHT22;730;48.870;12.542;2024-02-26T04:56:06;3.40;1.00
1476;DHT22;730;48.870;12.542;2024-02-26T04:58:32;3.40;1.00
1476;DHT22;730;48.870;12.542;2024-02-26T05:00:58;3.40;1.00
1476;DHT22;730;48.870;12.542;2024-02-26T05:03:24;3.40;1.00
1476;DHT22;730;48.870;12.542;2024-02-26T05:05:50;3.40;1.00
1476;DHT22;730;48.870;12.542;2024-02-26T05:08:16;3.40;1.00
1476;DHT22;730;48.870;12.542;2024-02-26T05:10:42;3.40;1.00
1476;DHT22;730;48.870;12.542;2024-02-26T05:13:09;3.30;1.00
1476;DHT22;730;48.870;12.542;2024-02-26T05:15:36;3.30;1.00
1476;DHT22;730;48.870;12.542;2024-02-26T05:18:02;3.30;1.00
1476;DHT22;730;48.870;12.542;2024-02-26T05:20:28;3.30;1.00
1476;DHT22;730;48.870;12.542;2024-02-26T05:22:54;3.20;1.00
1476;DHT22;730;48.870;12.542;2024-02-26T05:25:21;3.10;1.00
1476;DHT22;730;48.870;12.542;2024-02-26T05:27:47;3.10;1.00
1476;DHT22;730;48.870;12.542;2024-02-26T05:30:13;3.10;1.00
1476;DHT22;730;48.870;12.542;2024-02-26T05:32:39;3.10;1.00
1476;DHT22;730;48.870;12.542;2024-02-26T05:35:06;3.10;1.00
1476;DHT22;730;48.870;12.542;2024-02-26T05:37:32;3.10;1.00
1476;DHT22;730;48.870;12.542;2024-02-26T05:39:59;3.10;1.00
1476;DHT22;730;48.870;12.542;2024-02-26T05:42:25;3.10;1.00
1476;DHT22;730;48.870;12.542;2024-02-26T05:44:51;3.10;1.00
1476;DHT22;730;48.870;12.542;2024-02-26T05:47:17;3.10;1.00
1476;DHT22;730;48.870;12.542;2024-02-26T05:49:43;3.20;1.00
1476;DHT22;730;48.870;12.542;2024-02-26T05:52:09;3.20;1.00
1476;DHT22;730;48.870;12.542;2024-02-26T05:54:35;3.20;1.00
1476;DHT22;730;48.870;12.542;2024-02-26T05:57:03;3.20;1.00
1476;DHT22;730;48.870;12.542;2024-02-26T05:59:29;3.20;1.00
1476;DHT22;730;48.870;12.542;2024-02-26T06:01:55;3.20;1.00
1476;DHT22;730;48.870;12.542;2024-02-26T06:04:21;3.20;1.00
1476;DHT22;730;48.870;12.542;2024-02-26T06:06:47;3.10;1.00
1476;DHT22;730;48.870;12.542;2024-02-26T06:09:13;3.10;1.00
1476;DHT22;730;48.870;12.542;2024-02-26T06:11:39;3.10;1.00
1476;DHT22;730;48.870;12.542;2024-02-26T06:14:05;3.10;1.00
1476;DHT22;730;48.870;12.542;2024-02-26T06:16:31;3.10;1.00
1476;DHT22;730;48.870;12.542;2024-02-26T06:18:58;3.20;1.00
1476;DHT22;730;48.870;12.542;2024-02-26T06:21:25;3.20;1.00
1476;DHT22;730;48.870;12.542;2024-02-26T06:23:52;3.20;1.00
1476;DHT22;730;48.870;12.542;2024-02-26T06:26:19;3.20;1.00
1476;DHT22;730;48.870;12.542;2024-02-26T06:28:45;3.30;1.00
1476;DHT22;730;48.870;12.542;2024-02-26T06:31:11;3.40;1.00
1476;DHT22;730;48.870;12.542;2024-02-26T06:33:37;3.40;1.00
1476;DHT22;730;48.870;12.542;2024-02-26T06:36:03;3.50;1.00
1476;DHT22;730;48.870;12.542;2024-02-26T06:38:30;3.60;1.00
1476;DHT22;730;48.870;12.542;2024-02-26T06:40:56;3.80;1.00
1476;DHT22;730;48.870;12.542;2024-02-26T06:43:22;3.90;1.00
1476;DHT22;730;48.870;12.542;2024-02-26T06:45:48;4.10;1.00
1476;DHT22;730;48.870;12.542;2024-02-26T06:48:15;4.30;1.00
1476;DHT22;730;48.870;12.542;2024-02-26T06:50:41;4.50;1.00
1476;DHT22;730;48.870;12.542;2024-02-26T06:53:07;4.70;1.00
1476;DHT22;730;48.870;12.542;2024-02-26T06:55:33;4.90;1.00
1476;DHT22;730;48.870;12.542;2024-02-26T06:57:59;5.10;1.00
1476;DHT22;730;48.870;12.542;2024-02-26T07:00:26;5.20;1.00
1476;DHT22;730;48.870;12.542;2024-02-26T07:02:52;5.40;1.00
1476;DHT22;730;48.870;12.542;2024-02-26T07:05:18;5.60;1.00
1476;DHT22;730;48.870;12.542;2024-02-26T07:07:44;5.80;1.00
1476;DHT22;730;48.870;12.542;2024-02-26T07:10:11;6.00;1.00
1476;DHT22;730;48.870;12.542;2024-02-26T07:12:38;6.20;1.00
1476;DHT22;730;48.870;12.542;2024-02-26T07:15:05;6.50;1.00
1476;DHT22;730;48.870;12.542;2024-02-26T07:17:34;6.70;1.00
1476;DHT22;730;48.870;12.542;2024-02-26T07:20:00;7.00;1.00
1476;DHT22;730;48.870;12.542;2024-02-26T07:22:26;7.20;1.00
1476;DHT22;730;48.870;12.542;2024-02-26T07:24:52;7.40;1.00
1476;DHT22;730;48.870;12.542;2024-02-26T07:27:18;7.70;1.00
1476;DHT22;730;48.870;12.542;2024-02-26T07:29:44;7.90;1.00
1476;DHT22;730;48.870;12.542;2024-02-26T07:32:12;8.20;1.00
1476;DHT22;730;48.870;12.542;2024-02-26T07:34:38;8.40;1.00
1476;DHT22;730;48.870;12.542;2024-02-26T07:37:07;8.70;1.00
1476;DHT22;730;48.870;12.542;2024-02-26T07:39:34;8.90;1.00
1476;DHT22;730;48.870;12.542;2024-02-26T07:42:00;9.20;1.00
1476;DHT22;730;48.870;12.542;2024-02-26T07:44:26;9.30;1.00
1476;DHT22;730;48.870;12.542;2024-02-26T07:46:52;9.50;1.00
1476;DHT22;730;48.870;12.542;2024-02-26T07:49:19;9.50;1.00
1476;DHT22;730;48.870;12.542;2024-02-26T07:51:44;9.60;1.00
1476;DHT22;730;48.870;12.542;2024-02-26T07:54:11;9.70;1.00
1476;DHT22;730;48.870;12.542;2024-02-26T07:56:37;9.80;1.00
1476;DHT22;730;48.870;12.542;2024-02-26T07:59:03;9.70;1.00
1476;DHT22;730;48.870;12.542;2024-02-26T08:01:29;9.80;1.00
1476;DHT22;730;48.870;12.542;2024-02-26T08:03:55;9.90;1.00
1476;DHT22;730;48.870;12.542;2024-02-26T08:06:21;10.00;1.00
1476;DHT22;730;48.870;12.542;2024-02-26T08:08:48;10.00;1.00
1476;DHT22;730;48.870;12.542;2024-02-26T08:11:17;10.10;1.00
1476;DHT22;730;48.870;12.542;2024-02-26T08:13:43;10.20;1.00
1476;DHT22;730;48.870;12.542;2024-02-26T08:16:09;10.40;1.00
1476;DHT22;730;48.870;12.542;2024-02-26T08:18:35;10.60;1.00
1476;DHT22;730;48.870;12.542;2024-02-26T08:21:01;10.80;1.00
1476;DHT22;730;48.870;12.542;2024-02-26T08:23:27;11.00;1.00
1476;DHT22;730;48.870;12.542;2024-02-26T08:25:53;11.20;1.00
1476;DHT22;730;48.870;12.542;2024-02-26T08:28:19;11.30;1.00
1476;DHT22;730;48.870;12.542;2024-02-26T08:30:45;11.50;1.00
1476;DHT22;730;48.870;12.542;2024-02-26T08:33:11;11.70;1.00
1476;DHT22;730;48.870;12.542;2024-02-26T08:35:39;11.70;1.00
1476;DHT22;730;48.870;12.542;2024-02-26T08:38:05;11.90;1.00
1476;DHT22;730;48.870;12.542;2024-02-26T08:40:31;11.90;1.00
1476;DHT22;730;48.870;12.542;2024-02-26T08:42:57;12.00;1.00
1476;DHT22;730;48.870;12.542;2024-02-26T08:45:23;12.00;1.00
1476;DHT22;730;48.870;12.542;2024-02-26T08:47:50;11.90;1.00
1476;DHT22;730;48.870;12.542;2024-02-26T08:50:16;11.90;1.00
1476;DHT22;730;48.870;12.542;2024-02-26T08:52:42;12.00;1.00
1476;DHT22;730;48.870;12.542;2024-02-26T08:55:08;12.00;1.00
1476;DHT22;730;48.870;12.542;2024-02-26T08:57:35;12.00;1.00
1476;DHT22;730;48.870;12.542;2024-02-26T09:00:01;12.10;1.00
1476;DHT22;730;48.870;12.542;2024-02-26T09:02:27;12.10;1.00
1476;DHT22;730;48.870;12.542;2024-02-26T09:04:53;12.10;1.00
1476;DHT22;730;48.870;12.542;2024-02-26T09:07:21;11.90;1.00
1476;DHT22;730;48.870;12.542;2024-02-26T09:09:48;11.80;1.00
1476;DHT22;730;48.870;12.542;2024-02-26T09:12:14;11.70;1.00
1476;DHT22;730;48.870;12.542;2024-02-26T09:15:05;11.60;1.00
1476;DHT22;730;48.870;12.542;2024-02-26T09:17:32;11.50;1.00
1476;DHT22;730;48.870;12.542;2024-02-26T09:19:58;11.30;1.00
1476;DHT22;730;48.870;12.542;2024-02-26T09:22:24;11.10;1.00
1476;DHT22;730;48.870;12.542;2024-02-26T09:24:50;11.00;1.00
1476;DHT22;730;48.870;12.542;2024-02-26T09:27:18;10.90;1.00
1476;DHT22;730;48.870;12.542;2024-02-26T09:29:44;10.80;1.00
1476;DHT22;730;48.870;12.542;2024-02-26T09:32:10;10.60;1.00
1476;DHT22;730;48.870;12.542;2024-02-26T09:34:36;10.60;1.00
1476;DHT22;730;48.870;12.542;2024-02-26T09:37:05;10.60;1.00
1476;DHT22;730;48.870;12.542;2024-02-26T09:39:31;10.70;1.00
1476;DHT22;730;48.870;12.542;2024-02-26T09:41:57;10.70;1.00
1476;DHT22;730;48.870;12.542;2024-02-26T09:44:34;10.60;1.00
1476;DHT22;730;48.870;12.542;2024-02-26T09:47:05;10.50;1.00
1476;DHT22;730;48.870;12.542;2024-02-26T09:49:35;10.50;1.00
1476;DHT22;730;48.870;12.542;2024-02-26T09:52:04;10.60;1.00
1476;DHT22;730;48.870;12.542;2024-02-26T09:54:31;10.70;1.00
1476;DHT22;730;48.870;12.542;2024-02-26T09:57:00;10.90;1.00
1476;DHT22;730;48.870;12.542;2024-02-26T09:59:27;11.00;1.00
1476;DHT22;730;48.870;12.542;2024-02-26T10:01:53;11.00;1.00
1476;DHT22;730;48.870;12.542;2024-02-26T10:04:20;11.00;1.00
1476;DHT22;730;48.870;12.542;2024-02-26T10:06:47;11.10;1.00
1476;DHT22;730;48.870;12.542;2024-02-26T10:09:13;11.20;1.00
1476;DHT22;730;48.870;12.542;2024-02-26T10:11:42;11.20;1.00
1476;DHT22;730;48.870;12.542;2024-02-26T10:14:09;11.30;1.00
1476;DHT22;730;48.870;12.542;2024-02-26T10:16:35;11.30;1.00
1476;DHT22;730;48.870;12.542;2024-02-26T10:19:02;11.30;1.00
1476;DHT22;730;48.870;12.542;2024-02-26T10:21:28;11.40;1.00
1476;DHT22;730;48.870;12.542;2024-02-26T10:23:54;11.50;1.00
1476;DHT22;730;48.870;12.542;2024-02-26T10:26:20;11.50;1.00
1476;DHT22;730;48.870;12.542;2024-02-26T10:28:47;11.60;1.00
1476;DHT22;730;48.870;12.542;2024-02-26T10:31:14;11.60;1.00
1476;DHT22;730;48.870;12.542;2024-02-26T10:33:42;11.60;1.00
1476;DHT22;730;48.870;12.542;2024-02-26T10:36:09;11.50;1.00
1476;DHT22;730;48.870;12.542;2024-02-26T10:38:36;11.60;1.00
1476;DHT22;730;48.870;12.542;2024-02-26T10:41:03;11.50;1.00
1476;DHT22;730;48.870;12.542;2024-02-26T10:43:29;11.60;1.00
1476;DHT22;730;48.870;12.542;2024-02-26T10:45:56;11.60;1.00
1476;DHT22;730;48.870;12.542;2024-02-26T10:48:28;11.50;1.00
1476;DHT22;730;48.870;12.542;2024-02-26T10:50:54;11.50;1.00
1476;DHT22;730;48.870;12.542;2024-02-26T10:53:22;11.50;1.00
1476;DHT22;730;48.870;12.542;2024-02-26T10:56:00;11.50;1.00
1476;DHT22;730;48.870;12.542;2024-02-26T10:58:28;11.50;1.00
1476;DHT22;730;48.870;12.542;2024-02-26T11:00:56;11.40;1.00
1476;DHT22;730;48.870;12.542;2024-02-26T11:03:25;11.40;1.00
1476;DHT22;730;48.870;12.542;2024-02-26T11:05:51;11.30;1.00
1476;DHT22;730;48.870;12.542;2024-02-26T11:08:21;11.30;1.00
1476;DHT22;730;48.870;12.542;2024-02-26T11:10:48;11.40;1.00
1476;DHT22;730;48.870;12.542;2024-02-26T11:13:27;11.30;1.00
1476;DHT22;730;48.870;12.542;2024-02-26T11:15:56;11.30;1.00
1476;DHT22;730;48.870;12.542;2024-02-26T11:18:23;11.20;1.00
1476;DHT22;730;48.870;12.542;2024-02-26T11:20:52;11.10;1.00
1476;DHT22;730;48.870;12.542;2024-02-26T11:23:22;11.10;1.00
1476;DHT22;730;48.870;12.542;2024-02-26T11:25:53;11.10;1.00
1476;DHT22;730;48.870;12.542;2024-02-26T11:28:21;10.90;1.00
1476;DHT22;730;48.870;12.542;2024-02-26T11:30:48;10.80;1.00
1476;DHT22;730;48.870;12.542;2024-02-26T11:33:16;10.80;1.00
1476;DHT22;730;48.870;12.542;2024-02-26T11:35:42;10.70;1.00
1476;DHT22;730;48.870;12.542;2024-02-26T11:38:08;10.70;1.00
1476;DHT22;730;48.870;12.542;2024-02-26T11:40:44;10.80;1.00
1476;DHT22;730;48.870;12.542;2024-02-26T11:43:10;10.90;1.00
1476;DHT22;730;48.870;12.542;2024-02-26T11:48:24;10.90;1.00
1476;DHT22;730;48.870;12.542;2024-02-26T11:50:55;10.90;1.00
1476;DHT22;730;48.870;12.542;2024-02-26T11:53:31;10.90;1.00
1476;DHT22;730;48.870;12.542;2024-02-26T11:56:21;10.90;1.00
1476;DHT22;730;48.870;12.542;2024-02-26T11:58:48;10.90;1.00
1476;DHT22;730;48.870;12.542;2024-02-26T12:04:11;10.90;1.00
1476;DHT22;730;48.870;12.542;2024-02-26T12:07:00;10.80;1.00
1476;DHT22;730;48.870;12.542;2024-02-26T12:09:41;10.80;1.00
1476;DHT22;730;48.870;12.542;2024-02-26T12:12:11;10.70;1.00
1476;DHT22;730;48.870;12.542;2024-02-26T12:14:52;10.70;1.00
1476;DHT22;730;48.870;12.542;2024-02-26T12:17:20;10.70;1.00
1476;DHT22;730;48.870;12.542;2024-02-26T12:19:47;10.80;1.00
1476;DHT22;730;48.870;12.542;2024-02-26T12:22:13;10.80;1.00
1476;DHT22;730;48.870;12.542;2024-02-26T12:24:40;10.90;1.00
1476;DHT22;730;48.870;12.542;2024-02-26T12:27:08;11.00;1.00
1476;DHT22;730;48.870;12.542;2024-02-26T12:29:35;11.00;1.00
1476;DHT22;730;48.870;12.542;2024-02-26T12:32:02;11.10;1.00
1476;DHT22;730;48.870;12.542;2024-02-26T12:34:28;11.20;1.00
1476;DHT22;730;48.870;12.542;2024-02-26T12:36:55;11.30;1.00
1476;DHT22;730;48.870;12.542;2024-02-26T12:39:21;11.40;1.00
1476;DHT22;730;48.870;12.542;2024-02-26T12:41:48;11.50;1.00
1476;DHT22;730;48.870;12.542;2024-02-26T12:44:17;11.60;1.00
1476;DHT22;730;48.870;12.542;2024-02-26T12:46:43;11.70;1.00
1476;DHT22;730;48.870;12.542;2024-02-26T12:49:14;11.70;1.00
1476;DHT22;730;48.870;12.542;2024-02-26T12:51:40;11.90;1.00
1476;DHT22;730;48.870;12.542;2024-02-26T12:54:07;11.90;1.00
1476;DHT22;730;48.870;12.542;2024-02-26T12:56:34;12.00;1.00
1476;DHT22;730;48.870;12.542;2024-02-26T12:59:02;12.10;1.00
1476;DHT22;730;48.870;12.542;2024-02-26T13:01:29;12.20;1.00
1476;DHT22;730;48.870;12.542;2024-02-26T13:03:56;12.30;1.00
1476;DHT22;730;48.870;12.542;2024-02-26T13:06:23;12.40;1.00
1476;DHT22;730;48.870;12.542;2024-02-26T13:08:49;12.50;1.00
1476;DHT22;730;48.870;12.542;2024-02-26T13:11:22;12.60;1.00
1476;DHT22;730;48.870;12.542;2024-02-26T13:13:48;12.60;1.00
1476;DHT22;730;48.870;12.542;2024-02-26T13:16:15;12.70;1.00
1476;DHT22;730;48.870;12.542;2024-02-26T13:18:41;12.70;1.00
1476;DHT22;730;48.870;12.542;2024-02-26T13:21:12;12.70;1.00
1476;DHT22;730;48.870;12.542;2024-02-26T13:23:39;12.80;1.00
1476;DHT22;730;48.870;12.542;2024-02-26T13:26:06;12.90;1.00
1476;DHT22;730;48.870;12.542;2024-02-26T13:28:34;13.10;1.00
1476;DHT22;730;48.870;12.542;2024-02-26T13:31:00;13.20;1.00
1476;DHT22;730;48.870;12.542;2024-02-26T13:33:28;13.40;1.00
1476;DHT22;730;48.870;12.542;2024-02-26T13:35:55;13.50;1.00
1476;DHT22;730;48.870;12.542;2024-02-26T13:38:22;13.70;1.00
1476;DHT22;730;48.870;12.542;2024-02-26T13:40:49;14.00;1.00
1476;DHT22;730;48.870;12.542;2024-02-26T13:43:15;14.20;1.00
1476;DHT22;730;48.870;12.542;2024-02-26T13:45:41;14.50;1.00
1476;DHT22;730;48.870;12.542;2024-02-26T13:48:08;14.80;1.00
1476;DHT22;730;48.870;12.542;2024-02-26T13:50:38;15.10;1.00
1476;DHT22;730;48.870;12.542;2024-02-26T13:53:04;15.40;1.00
1476;DHT22;730;48.870;12.542;2024-02-26T13:55:31;15.70;1.00
1476;DHT22;730;48.870;12.542;2024-02-26T13:57:58;15.80;1.00
1476;DHT22;730;48.870;12.542;2024-02-26T14:00:26;15.90;1.00
1476;DHT22;730;48.870;12.542;2024-02-26T14:02:52;16.00;1.00
1476;DHT22;730;48.870;12.542;2024-02-26T14:05:18;16.00;1.00
1476;DHT22;730;48.870;12.542;2024-02-26T14:07:44;15.90;1.00
1476;DHT22;730;48.870;12.542;2024-02-26T14:10:12;15.80;1.00
1476;DHT22;730;48.870;12.542;2024-02-26T14:12:38;15.90;1.00
1476;DHT22;730;48.870;12.542;2024-02-26T14:15:08;16.00;1.00
1476;DHT22;730;48.870;12.542;2024-02-26T14:17:34;16.00;1.00
1476;DHT22;730;48.870;12.542;2024-02-26T14:20:00;16.10;1.00
1476;DHT22;730;48.870;12.542;2024-02-26T14:22:28;16.40;1.00
1476;DHT22;730;48.870;12.542;2024-02-26T14:24:56;17.00;1.00
1476;DHT22;730;48.870;12.542;2024-02-26T14:27:23;17.60;1.00
1476;DHT22;730;48.870;12.542;2024-02-26T14:29:49;18.30;1.00
1476;DHT22;730;48.870;12.542;2024-02-26T14:32:15;19.40;1.00
1476;DHT22;730;48.870;12.542;2024-02-26T14:34:42;20.60;1.00
1476;DHT22;730;48.870;12.542;2024-02-26T14:37:08;21.60;1.00
1476;DHT22;730;48.870;12.542;2024-02-26T14:39:34;22.60;1.00
1476;DHT22;730;48.870;12.542;2024-02-26T14:42:01;23.50;1.00
1476;DHT22;730;48.870;12.542;2024-02-26T14:44:27;24.50;1.00
1476;DHT22;730;48.870;12.542;2024-02-26T14:46:53;24.80;1.00
1476;DHT22;730;48.870;12.542;2024-02-26T14:49:19;24.50;1.00
1476;DHT22;730;48.870;12.542;2024-02-26T14:51:45;23.80;1.00
1476;DHT22;730;48.870;12.542;2024-02-26T14:54:12;23.40;1.00
1476;DHT22;730;48.870;12.542;2024-02-26T14:56:38;23.40;1.00
1476;DHT22;730;48.870;12.542;2024-02-26T14:59:05;23.60;1.00
1476;DHT22;730;48.870;12.542;2024-02-26T15:01:32;23.20;1.00
1476;DHT22;730;48.870;12.542;2024-02-26T15:03:58;23.10;1.00
1476;DHT22;730;48.870;12.542;2024-02-26T15:06:25;22.80;1.00
1476;DHT22;730;48.870;12.542;2024-02-26T15:08:52;22.50;1.00
1476;DHT22;730;48.870;12.542;2024-02-26T15:11:18;22.20;1.00
1476;DHT22;730;48.870;12.542;2024-02-26T15:13:44;21.80;1.00
1476;DHT22;730;48.870;12.542;2024-02-26T15:16:17;21.20;1.00
1476;DHT22;730;48.870;12.542;2024-02-26T15:18:44;20.90;1.00
1476;DHT22;730;48.870;12.542;2024-02-26T15:21:10;20.80;1.00
1476;DHT22;730;48.870;12.542;2024-02-26T15:23:39;20.50;1.00
1476;DHT22;730;48.870;12.542;2024-02-26T15:26:05;20.20;1.00
1476;DHT22;730;48.870;12.542;2024-02-26T15:28:31;19.80;1.00
1476;DHT22;730;48.870;12.542;2024-02-26T15:30:57;19.20;1.00
1476;DHT22;730;48.870;12.542;2024-02-26T15:33:24;18.80;1.00
1476;DHT22;730;48.870;12.542;2024-02-26T15:35:50;18.40;1.00
1476;DHT22;730;48.870;12.542;2024-02-26T15:38:16;18.00;1.00
1476;DHT22;730;48.870;12.542;2024-02-26T15:40:42;17.70;1.00
1476;DHT22;730;48.870;12.542;2024-02-26T15:43:10;17.70;1.00
1476;DHT22;730;48.870;12.542;2024-02-26T15:45:36;17.60;1.00
1476;DHT22;730;48.870;12.542;2024-02-26T15:48:02;17.40;1.00
1476;DHT22;730;48.870;12.542;2024-02-26T15:50:29;17.10;1.00
1476;DHT22;730;48.870;12.542;2024-02-26T15:52:55;16.80;1.00
1476;DHT22;730;48.870;12.542;2024-02-26T15:55:21;16.90;1.00
1476;DHT22;730;48.870;12.542;2024-02-26T15:57:47;17.30;1.00
1476;DHT22;730;48.870;12.542;2024-02-26T16:00:14;17.50;1.00
1476;DHT22;730;48.870;12.542;2024-02-26T16:02:40;17.20;1.00
1476;DHT22;730;48.870;12.542;2024-02-26T16:05:07;16.90;1.00
1476;DHT22;730;48.870;12.542;2024-02-26T16:07:52;16.40;1.00
1476;DHT22;730;48.870;12.542;2024-02-26T16:10:19;15.70;1.00
1476;DHT22;730;48.870;12.542;2024-02-26T16:12:52;15.30;1.00
1476;DHT22;730;48.870;12.542;2024-02-26T16:15:18;14.90;1.00
1476;DHT22;730;48.870;12.542;2024-02-26T16:17:48;14.60;1.00
1476;DHT22;730;48.870;12.542;2024-02-26T16:20:19;14.20;1.00
1476;DHT22;730;48.870;12.542;2024-02-26T16:22:47;13.90;1.00
1476;DHT22;730;48.870;12.542;2024-02-26T16:25:14;13.60;1.00
1476;DHT22;730;48.870;12.542;2024-02-26T16:27:40;13.30;1.00
1476;DHT22;730;48.870;12.542;2024-02-26T16:30:08;13.00;1.00